sensor_id;sensor_type;location;lat;lon;timestamp;temperature;humidity
9666;DHT22;4871;52.004;5.924;2023-02-20T00:00:04;5.8;90.6
9666;DHT22;4871;52.004;5.924;2023-02-20T00:01:00;5.8;90.4
9666;DHT22;4871;52.004;5.924;2023-02-20T00:02:03;5.8;90.6
9666;DHT22;4871;52.004;5.924;2023-02-20T00:03:00;5.8;90.4
9666;DHT22;4871;52.004;5.924;2023-02-20T00:04:01;5.8;90.5
9666;DHT22;4871;52.004;5.924;2023-02-20T00:05:00;5.8;90.6
9666;DHT22;4871;52.004;5.924;2023-02-20T00:06:02;5.8;90.5
9666;DHT22;4871;52.004;5.924;2023-02-20T00:07:00;5.8;90.5
9666;DHT22;4871;52.004;5.924;2023-02-20T00:08:03;5.8;90.5
9666;DHT22;4871;52.004;5.924;2023-02-20T00:09:00;5.8;90.6
9666;DHT22;4871;52.004;5.924;2023-02-20T00:10:02;5.8;90.4
9666;DHT22;4871;52.004;5.924;2023-02-20T00:11:00;5.8;90.2
9666;DHT22;4871;52.004;5.924;2023-02-20T00:12:00;5.8;90.4
9666;DHT22;4871;52.004;5.924;2023-02-20T00:13:00;5.8;90.5
9666;DHT22;4871;52.004;5.924;2023-02-20T00:14:02;5.8;90.5
9666;DHT22;4871;52.004;5.924;2023-02-20T00:15:00;5.8;90.6
9666;DHT22;4871;52.004;5.924;2023-02-20T00:16:02;5.8;90.6
9666;DHT22;4871;52.004;5.924;2023-02-20T00:17:00;5.9;90.4
9666;DHT22;4871;52.004;5.924;2023-02-20T00:18:01;5.8;90.3
9666;DHT22;4871;52.004;5.924;2023-02-20T00:19:00;5.9;90.5
9666;DHT22;4871;52.004;5.924;2023-02-20T00:20:03;5.8;90.5
9666;DHT22;4871;52.004;5.924;2023-02-20T00:21:00;5.8;90.3
9666;DHT22;4871;52.004;5.924;2023-02-20T00:22:01;5.8;90.6
9666;DHT22;4871;52.004;5.924;2023-02-20T00:23:00;5.8;90.3
9666;DHT22;4871;52.004;5.924;2023-02-20T00:24:02;5.8;90.2
9666;DHT22;4871;52.004;5.924;2023-02-20T00:25:00;5.8;90.4
9666;DHT22;4871;52.004;5.924;2023-02-20T00:26:01;5.8;90.6
9666;DHT22;4871;52.004;5.924;2023-02-20T00:27:00;5.8;90.2
9666;DHT22;4871;52.004;5.924;2023-02-20T00:28:02;5.8;90.4
9666;DHT22;4871;52.004;5.924;2023-02-20T00:29:00;5.8;90.4
9666;DHT22;4871;52.004;5.924;2023-02-20T00:30:02;5.9;90.4
9666;DHT22;4871;52.004;5.924;2023-02-20T00:31:00;5.9;90.3
9666;DHT22;4871;52.004;5.924;2023-02-20T00:32:02;5.9;90.2
9666;DHT22;4871;52.004;5.924;2023-02-20T00:33:00;5.9;90.5
9666;DHT22;4871;52.004;5.924;2023-02-20T00:34:01;5.8;90.2
9666;DHT22;4871;52.004;5.924;2023-02-20T00:35:00;5.8;90.3
9666;DHT22;4871;52.004;5.924;2023-02-20T00:36:01;5.8;90.3
9666;DHT22;4871;52.004;5.924;2023-02-20T00:37:00;5.8;90.5
9666;DHT22;4871;52.004;5.924;2023-02-20T00:38:02;5.8;90.5
9666;DHT22;4871;52.004;5.924;2023-02-20T00:39:00;5.8;90.4
9666;DHT22;4871;52.004;5.924;2023-02-20T00:40:01;5.9;90.5
9666;DHT22;4871;52.004;5.924;2023-02-20T00:41:00;5.9;90.4
9666;DHT22;4871;52.004;5.924;2023-02-20T00:42:01;5.9;90.4
9666;DHT22;4871;52.004;5.924;2023-02-20T00:43:00;5.9;90.4
9666;DHT22;4871;52.004;5.924;2023-02-20T00:44:02;5.9;90.3
9666;DHT22;4871;52.004;5.924;2023-02-20T00:45:00;5.8;90.4
9666;DHT22;4871;52.004;5.924;2023-02-20T00:46:03;5.9;90.4
9666;DHT22;4871;52.004;5.924;2023-02-20T00:47:00;5.9;90.3
9666;DHT22;4871;52.004;5.924;2023-02-20T00:48:01;5.9;90.4
9666;DHT22;4871;52.004;5.924;2023-02-20T00:49:00;5.9;90.5
9666;DHT22;4871;52.004;5.924;2023-02-20T00:50:03;5.9;90.3
9666;DHT22;4871;52.004;5.924;2023-02-20T00:51:00;5.9;90.3
9666;DHT22;4871;52.004;5.924;2023-02-20T00:52:03;5.9;90.4
9666;DHT22;4871;52.004;5.924;2023-02-20T00:53:00;5.9;90.3
9666;DHT22;4871;52.004;5.924;2023-02-20T00:54:01;5.9;90.3
9666;DHT22;4871;52.004;5.924;2023-02-20T00:55:00;5.9;90.4
9666;DHT22;4871;52.004;5.924;2023-02-20T00:56:01;5.9;90.4
9666;DHT22;4871;52.004;5.924;2023-02-20T00:57:00;5.9;90.5
9666;DHT22;4871;52.004;5.924;2023-02-20T00:58:01;5.9;90.5
9666;DHT22;4871;52.004;5.924;2023-02-20T00:59:00;5.9;90.4
9666;DHT22;4871;52.004;5.924;2023-02-20T01:00:03;5.9;90.5
9666;DHT22;4871;52.004;5.924;2023-02-20T01:01:00;5.9;90.3
9666;DHT22;4871;52.004;5.924;2023-02-20T01:02:01;5.9;90.4
9666;DHT22;4871;52.004;5.924;2023-02-20T01:03:00;5.9;90.4
9666;DHT22;4871;52.004;5.924;2023-02-20T01:04:01;5.9;90.2
9666;DHT22;4871;52.004;5.924;2023-02-20T01:05:00;5.9;90.3
9666;DHT22;4871;52.004;5.924;2023-02-20T01:06:01;5.9;90.4
9666;DHT22;4871;52.004;5.924;2023-02-20T01:07:00;5.9;90.2
9666;DHT22;4871;52.004;5.924;2023-02-20T01:08:01;5.9;90.4
9666;DHT22;4871;52.004;5.924;2023-02-20T01:09:00;5.9;90.4
9666;DHT22;4871;52.004;5.924;2023-02-20T01:10:02;5.9;90.3
9666;DHT22;4871;52.004;5.924;2023-02-20T01:11:00;5.9;90.3
9666;DHT22;4871;52.004;5.924;2023-02-20T01:12:00;5.9;90.2
9666;DHT22;4871;52.004;5.924;2023-02-20T01:13:00;5.9;90.2
9666;DHT22;4871;52.004;5.924;2023-02-20T01:14:02;5.9;90.2
9666;DHT22;4871;52.004;5.924;2023-02-20T01:15:00;5.9;90.3
9666;DHT22;4871;52.004;5.924;2023-02-20T01:16:03;5.9;90.2
9666;DHT22;4871;52.004;5.924;2023-02-20T01:17:00;5.9;90.2
9666;DHT22;4871;52.004;5.924;2023-02-20T01:18:02;5.9;90.2
9666;DHT22;4871;52.004;5.924;2023-02-20T01:19:00;5.9;90.1
9666;DHT22;4871;52.004;5.924;2023-02-20T01:20:02;5.9;90.2
9666;DHT22;4871;52.004;5.924;2023-02-20T01:21:00;5.9;90.2
9666;DHT22;4871;52.004;5.924;2023-02-20T01:22:01;5.9;90.2
9666;DHT22;4871;52.004;5.924;2023-02-20T01:23:00;5.9;90.3
9666;DHT22;4871;52.004;5.924;2023-02-20T01:24:02;5.9;89.9
9666;DHT22;4871;52.004;5.924;2023-02-20T01:25:00;5.9;90.3
9666;DHT22;4871;52.004;5.924;2023-02-20T01:26:01;5.9;90.2
9666;DHT22;4871;52.004;5.924;2023-02-20T01:27:00;5.9;90.0
9666;DHT22;4871;52.004;5.924;2023-02-20T01:28:02;5.9;90.2
9666;DHT22;4871;52.004;5.924;2023-02-20T01:29:00;5.9;90.2
9666;DHT22;4871;52.004;5.924;2023-02-20T01:30:03;5.9;90.3
9666;DHT22;4871;52.004;5.924;2023-02-20T01:31:00;5.9;90.4
9666;DHT22;4871;52.004;5.924;2023-02-20T01:32:00;5.9;90.4
9666;DHT22;4871;52.004;5.924;2023-02-20T01:33:00;5.9;90.4
9666;DHT22;4871;52.004;5.924;2023-02-20T01:34:01;5.9;90.4
9666;DHT22;4871;52.004;5.924;2023-02-20T01:35:00;5.9;90.2
9666;DHT22;4871;52.004;5.924;2023-02-20T01:36:05;5.8;90.5
9666;DHT22;4871;52.004;5.924;2023-02-20T01:37:00;5.8;90.5
9666;DHT22;4871;52.004;5.924;2023-02-20T01:38:05;5.8;90.1
9666;DHT22;4871;52.004;5.924;2023-02-20T01:39:00;5.9;90.2
9666;DHT22;4871;52.004;5.924;2023-02-20T01:40:03;5.8;90.1
9666;DHT22;4871;52.004;5.924;2023-02-20T01:41:00;5.8;90.2
9666;DHT22;4871;52.004;5.924;2023-02-20T01:42:03;5.9;90.3
9666;DHT22;4871;52.004;5.924;2023-02-20T01:43:01;5.8;90.3
9666;DHT22;4871;52.004;5.924;2023-02-20T01:44:01;5.8;90.3
9666;DHT22;4871;52.004;5.924;2023-02-20T01:45:13;5.8;90.4
9666;DHT22;4871;52.004;5.924;2023-02-20T01:46:39;5.8;90.3
9666;DHT22;4871;52.004;5.924;2023-02-20T01:47:03;5.8;90.3
9666;DHT22;4871;52.004;5.924;2023-02-20T01:48:01;5.8;90.4
9666;DHT22;4871;52.004;5.924;2023-02-20T01:49:03;5.8;90.1
9666;DHT22;4871;52.004;5.924;2023-02-20T01:50:05;5.8;90.2
9666;DHT22;4871;52.004;5.924;2023-02-20T01:51:00;5.8;90.3
9666;DHT22;4871;52.004;5.924;2023-02-20T01:52:07;5.8;90.3
9666;DHT22;4871;52.004;5.924;2023-02-20T01:53:05;5.8;90.4
9666;DHT22;4871;52.004;5.924;2023-02-20T01:54:01;5.8;90.3
9666;DHT22;4871;52.004;5.924;2023-02-20T01:55:03;5.8;90.2
9666;DHT22;4871;52.004;5.924;2023-02-20T01:56:05;5.8;90.2
9666;DHT22;4871;52.004;5.924;2023-02-20T01:57:02;5.8;90.2
9666;DHT22;4871;52.004;5.924;2023-02-20T01:58:06;5.8;90.3
9666;DHT22;4871;52.004;5.924;2023-02-20T01:59:01;5.8;90.1
9666;DHT22;4871;52.004;5.924;2023-02-20T02:00:06;5.8;90.3
9666;DHT22;4871;52.004;5.924;2023-02-20T02:01:01;5.8;90.2
9666;DHT22;4871;52.004;5.924;2023-02-20T02:02:03;5.8;90.2
9666;DHT22;4871;52.004;5.924;2023-02-20T02:03:04;5.8;90.1
9666;DHT22;4871;52.004;5.924;2023-02-20T02:04:06;5.8;90.4
9666;DHT22;4871;52.004;5.924;2023-02-20T02:05:00;5.8;90.1
9666;DHT22;4871;52.004;5.924;2023-02-20T02:06:04;5.8;90.3
9666;DHT22;4871;52.004;5.924;2023-02-20T02:07:01;5.7;90.3
9666;DHT22;4871;52.004;5.924;2023-02-20T02:08:05;5.7;90.4
9666;DHT22;4871;52.004;5.924;2023-02-20T02:09:07;5.7;90.3
9666;DHT22;4871;52.004;5.924;2023-02-20T02:10:06;5.8;90.4
9666;DHT22;4871;52.004;5.924;2023-02-20T02:11:02;5.7;90.3
9666;DHT22;4871;52.004;5.924;2023-02-20T02:12:00;5.8;90.0
9666;DHT22;4871;52.004;5.924;2023-02-20T02:13:01;5.7;90.4
9666;DHT22;4871;52.004;5.924;2023-02-20T02:14:01;5.7;90.4
9666;DHT22;4871;52.004;5.924;2023-02-20T02:15:00;5.8;90.2
9666;DHT22;4871;52.004;5.924;2023-02-20T02:16:10;5.8;90.3
9666;DHT22;4871;52.004;5.924;2023-02-20T02:17:12;5.7;90.1
9666;DHT22;4871;52.004;5.924;2023-02-20T02:18:12;5.7;90.2
9666;DHT22;4871;52.004;5.924;2023-02-20T02:19:06;5.7;90.3
9666;DHT22;4871;52.004;5.924;2023-02-20T02:20:34;5.7;90.6
9666;DHT22;4871;52.004;5.924;2023-02-20T02:22:22;5.7;90.2
9666;DHT22;4871;52.004;5.924;2023-02-20T02:23:25;5.7;90.2
9666;DHT22;4871;52.004;5.924;2023-02-20T02:25:14;5.7;90.2
9666;DHT22;4871;52.004;5.924;2023-02-20T02:26:10;5.7;90.4
9666;DHT22;4871;52.004;5.924;2023-02-20T02:27:16;5.7;90.4
9666;DHT22;4871;52.004;5.924;2023-02-20T02:28:18;5.7;90.2
9666;DHT22;4871;52.004;5.924;2023-02-20T02:29:12;5.7;90.2
9666;DHT22;4871;52.004;5.924;2023-02-20T02:30:18;5.7;90.4
9666;DHT22;4871;52.004;5.924;2023-02-20T02:31:16;5.7;90.3
9666;DHT22;4871;52.004;5.924;2023-02-20T02:32:12;5.7;90.3
9666;DHT22;4871;52.004;5.924;2023-02-20T02:33:17;5.7;90.3
9666;DHT22;4871;52.004;5.924;2023-02-20T02:34:20;5.7;90.3
9666;DHT22;4871;52.004;5.924;2023-02-20T02:35:09;5.7;90.2
9666;DHT22;4871;52.004;5.924;2023-02-20T02:36:12;5.7;90.4
9666;DHT22;4871;52.004;5.924;2023-02-20T02:37:02;5.7;90.2
9666;DHT22;4871;52.004;5.924;2023-02-20T02:38:06;5.7;90.3
9666;DHT22;4871;52.004;5.924;2023-02-20T02:39:03;5.7;90.3
9666;DHT22;4871;52.004;5.924;2023-02-20T02:40:07;5.7;90.2
9666;DHT22;4871;52.004;5.924;2023-02-20T02:41:07;5.7;90.5
9666;DHT22;4871;52.004;5.924;2023-02-20T02:42:08;5.7;90.4
9666;DHT22;4871;52.004;5.924;2023-02-20T02:43:07;5.7;90.2
9666;DHT22;4871;52.004;5.924;2023-02-20T02:44:06;5.8;90.2
9666;DHT22;4871;52.004;5.924;2023-02-20T02:45:02;5.7;90.2
9666;DHT22;4871;52.004;5.924;2023-02-20T02:46:06;5.7;90.3
9666;DHT22;4871;52.004;5.924;2023-02-20T02:47:02;5.7;90.4
9666;DHT22;4871;52.004;5.924;2023-02-20T02:48:07;5.7;90.5
9666;DHT22;4871;52.004;5.924;2023-02-20T02:49:04;5.8;90.2
9666;DHT22;4871;52.004;5.924;2023-02-20T02:50:05;5.8;90.3
9666;DHT22;4871;52.004;5.924;2023-02-20T02:51:04;5.8;90.3
9666;DHT22;4871;52.004;5.924;2023-02-20T02:52:04;5.8;90.4
9666;DHT22;4871;52.004;5.924;2023-02-20T02:53:01;5.8;90.3
9666;DHT22;4871;52.004;5.924;2023-02-20T02:54:03;5.8;90.3
9666;DHT22;4871;52.004;5.924;2023-02-20T02:55:00;5.8;90.3
9666;DHT22;4871;52.004;5.924;2023-02-20T02:56:11;5.8;90.3
9666;DHT22;4871;52.004;5.924;2023-02-20T02:57:25;5.9;90.4
9666;DHT22;4871;52.004;5.924;2023-02-20T02:58:03;5.9;90.3
9666;DHT22;4871;52.004;5.924;2023-02-20T02:59:00;5.9;90.3
9666;DHT22;4871;52.004;5.924;2023-02-20T03:00:08;5.8;90.3
9666;DHT22;4871;52.004;5.924;2023-02-20T03:01:00;5.9;90.3
9666;DHT22;4871;52.004;5.924;2023-02-20T03:02:06;5.9;90.3
9666;DHT22;4871;52.004;5.924;2023-02-20T03:03:04;5.9;90.2
9666;DHT22;4871;52.004;5.924;2023-02-20T03:04:02;5.9;90.5
9666;DHT22;4871;52.004;5.924;2023-02-20T03:05:03;5.9;90.5
9666;DHT22;4871;52.004;5.924;2023-02-20T03:06:05;5.9;90.3
9666;DHT22;4871;52.004;5.924;2023-02-20T03:07:04;5.9;90.3
9666;DHT22;4871;52.004;5.924;2023-02-20T03:08:01;5.9;90.3
9666;DHT22;4871;52.004;5.924;2023-02-20T03:09:02;6.0;90.1
9666;DHT22;4871;52.004;5.924;2023-02-20T03:10:05;6.0;90.0
9666;DHT22;4871;52.004;5.924;2023-02-20T03:11:04;6.0;90.3
9666;DHT22;4871;52.004;5.924;2023-02-20T03:12:02;6.0;90.1
9666;DHT22;4871;52.004;5.924;2023-02-20T03:13:03;6.0;90.3
9666;DHT22;4871;52.004;5.924;2023-02-20T03:14:15;6.0;90.1
9666;DHT22;4871;52.004;5.924;2023-02-20T03:15:13;6.0;90.2
9666;DHT22;4871;52.004;5.924;2023-02-20T03:16:02;6.0;89.9
9666;DHT22;4871;52.004;5.924;2023-02-20T03:17:08;6.0;89.8
9666;DHT22;4871;52.004;5.924;2023-02-20T03:18:13;6.0;90.1
9666;DHT22;4871;52.004;5.924;2023-02-20T03:19:01;6.0;90.3
9666;DHT22;4871;52.004;5.924;2023-02-20T03:20:05;6.0;90.0
9666;DHT22;4871;52.004;5.924;2023-02-20T03:21:05;6.1;89.8
9666;DHT22;4871;52.004;5.924;2023-02-20T03:22:06;6.1;89.9
9666;DHT22;4871;52.004;5.924;2023-02-20T03:23:02;6.0;90.1
9666;DHT22;4871;52.004;5.924;2023-02-20T03:24:02;6.1;90.0
9666;DHT22;4871;52.004;5.924;2023-02-20T03:25:03;6.1;90.2
9666;DHT22;4871;52.004;5.924;2023-02-20T03:26:04;6.0;90.1
9666;DHT22;4871;52.004;5.924;2023-02-20T03:27:01;6.1;90.2
9666;DHT22;4871;52.004;5.924;2023-02-20T03:28:05;6.0;90.2
9666;DHT22;4871;52.004;5.924;2023-02-20T03:29:03;6.1;90.3
9666;DHT22;4871;52.004;5.924;2023-02-20T03:30:05;6.1;89.8
9666;DHT22;4871;52.004;5.924;2023-02-20T03:31:04;6.1;90.0
9666;DHT22;4871;52.004;5.924;2023-02-20T03:32:12;6.1;90.2
9666;DHT22;4871;52.004;5.924;2023-02-20T03:33:12;6.1;90.2
9666;DHT22;4871;52.004;5.924;2023-02-20T03:34:13;6.1;90.1
9666;DHT22;4871;52.004;5.924;2023-02-20T03:35:10;6.1;90.1
9666;DHT22;4871;52.004;5.924;2023-02-20T03:36:15;6.1;90.1
9666;DHT22;4871;52.004;5.924;2023-02-20T03:37:15;6.1;90.0
9666;DHT22;4871;52.004;5.924;2023-02-20T03:38:12;6.1;89.8
9666;DHT22;4871;52.004;5.924;2023-02-20T03:39:14;6.1;89.8
9666;DHT22;4871;52.004;5.924;2023-02-20T03:40:12;6.1;89.6
9666;DHT22;4871;52.004;5.924;2023-02-20T03:41:12;6.1;89.7
9666;DHT22;4871;52.004;5.924;2023-02-20T03:42:13;6.1;89.7
9666;DHT22;4871;52.004;5.924;2023-02-20T03:43:13;6.2;89.9
9666;DHT22;4871;52.004;5.924;2023-02-20T03:44:03;6.2;89.7
9666;DHT22;4871;52.004;5.924;2023-02-20T03:45:01;6.2;89.8
9666;DHT22;4871;52.004;5.924;2023-02-20T03:46:05;6.2;89.8
9666;DHT22;4871;52.004;5.924;2023-02-20T03:47:01;6.2;89.8
9666;DHT22;4871;52.004;5.924;2023-02-20T03:48:03;6.2;90.0
9666;DHT22;4871;52.004;5.924;2023-02-20T03:49:03;6.2;89.8
9666;DHT22;4871;52.004;5.924;2023-02-20T03:50:01;6.2;90.0
9666;DHT22;4871;52.004;5.924;2023-02-20T03:51:00;6.2;89.9
9666;DHT22;4871;52.004;5.924;2023-02-20T03:52:02;6.2;90.0
9666;DHT22;4871;52.004;5.924;2023-02-20T03:53:00;6.2;89.8
9666;DHT22;4871;52.004;5.924;2023-02-20T03:54:03;6.2;89.7
9666;DHT22;4871;52.004;5.924;2023-02-20T03:55:00;6.2;89.8
9666;DHT22;4871;52.004;5.924;2023-02-20T03:56:04;6.2;90.0
9666;DHT22;4871;52.004;5.924;2023-02-20T03:57:02;6.2;90.3
9666;DHT22;4871;52.004;5.924;2023-02-20T03:58:04;6.2;89.8
9666;DHT22;4871;52.004;5.924;2023-02-20T03:59:02;6.2;89.8
9666;DHT22;4871;52.004;5.924;2023-02-20T04:00:02;6.2;90.1
9666;DHT22;4871;52.004;5.924;2023-02-20T04:01:02;6.2;89.8
9666;DHT22;4871;52.004;5.924;2023-02-20T04:02:04;6.2;89.9
9666;DHT22;4871;52.004;5.924;2023-02-20T04:03:05;6.2;89.9
9666;DHT22;4871;52.004;5.924;2023-02-20T04:04:02;6.2;89.7
9666;DHT22;4871;52.004;5.924;2023-02-20T04:05:03;6.2;89.6
9666;DHT22;4871;52.004;5.924;2023-02-20T04:06:03;6.2;89.8
9666;DHT22;4871;52.004;5.924;2023-02-20T04:07:02;6.2;90.1
9666;DHT22;4871;52.004;5.924;2023-02-20T04:08:04;6.2;90.0
9666;DHT22;4871;52.004;5.924;2023-02-20T04:09:03;6.3;89.7
9666;DHT22;4871;52.004;5.924;2023-02-20T04:10:03;6.3;89.9
9666;DHT22;4871;52.004;5.924;2023-02-20T04:11:04;6.3;89.9
9666;DHT22;4871;52.004;5.924;2023-02-20T04:12:07;6.3;90.4
9666;DHT22;4871;52.004;5.924;2023-02-20T04:13:01;6.3;90.0
9666;DHT22;4871;52.004;5.924;2023-02-20T04:14:03;6.3;89.7
9666;DHT22;4871;52.004;5.924;2023-02-20T04:15:01;6.3;90.0
9666;DHT22;4871;52.004;5.924;2023-02-20T04:16:02;6.3;90.2
9666;DHT22;4871;52.004;5.924;2023-02-20T04:17:02;6.3;90.0
9666;DHT22;4871;52.004;5.924;2023-02-20T04:18:04;6.3;89.9
9666;DHT22;4871;52.004;5.924;2023-02-20T04:19:00;6.3;90.0
9666;DHT22;4871;52.004;5.924;2023-02-20T04:20:02;6.3;90.2
9666;DHT22;4871;52.004;5.924;2023-02-20T04:21:04;6.3;90.0
9666;DHT22;4871;52.004;5.924;2023-02-20T04:22:03;6.3;89.9
9666;DHT22;4871;52.004;5.924;2023-02-20T04:23:04;6.4;89.8
9666;DHT22;4871;52.004;5.924;2023-02-20T04:24:06;6.4;90.0
9666;DHT22;4871;52.004;5.924;2023-02-20T04:25:02;6.4;89.7
9666;DHT22;4871;52.004;5.924;2023-02-20T04:26:03;6.4;90.1
9666;DHT22;4871;52.004;5.924;2023-02-20T04:27:00;6.4;90.0
9666;DHT22;4871;52.004;5.924;2023-02-20T04:28:02;6.4;90.0
9666;DHT22;4871;52.004;5.924;2023-02-20T04:29:00;6.4;89.8
9666;DHT22;4871;52.004;5.924;2023-02-20T04:30:02;6.4;90.0
9666;DHT22;4871;52.004;5.924;2023-02-20T04:31:00;6.4;90.4
9666;DHT22;4871;52.004;5.924;2023-02-20T04:32:03;6.4;90.1
9666;DHT22;4871;52.004;5.924;2023-02-20T04:33:00;6.4;90.1
9666;DHT22;4871;52.004;5.924;2023-02-20T04:34:02;6.4;89.8
9666;DHT22;4871;52.004;5.924;2023-02-20T04:35:00;6.4;90.2
9666;DHT22;4871;52.004;5.924;2023-02-20T04:36:02;6.4;89.9
9666;DHT22;4871;52.004;5.924;2023-02-20T04:37:06;6.4;90.3
9666;DHT22;4871;52.004;5.924;2023-02-20T04:38:01;6.4;90.1
9666;DHT22;4871;52.004;5.924;2023-02-20T04:39:00;6.5;89.7
9666;DHT22;4871;52.004;5.924;2023-02-20T04:40:04;6.4;90.6
9666;DHT22;4871;52.004;5.924;2023-02-20T04:41:00;6.4;90.6
9666;DHT22;4871;52.004;5.924;2023-02-20T04:42:04;6.4;90.2
9666;DHT22;4871;52.004;5.924;2023-02-20T04:43:00;6.5;90.3
9666;DHT22;4871;52.004;5.924;2023-02-20T04:44:14;6.5;90.4
9666;DHT22;4871;52.004;5.924;2023-02-20T04:45:00;6.5;90.4
9666;DHT22;4871;52.004;5.924;2023-02-20T04:46:01;6.5;90.4
9666;DHT22;4871;52.004;5.924;2023-02-20T04:47:03;6.5;90.1
9666;DHT22;4871;52.004;5.924;2023-02-20T04:48:01;6.5;90.2
9666;DHT22;4871;52.004;5.924;2023-02-20T04:49:00;6.5;90.7
9666;DHT22;4871;52.004;5.924;2023-02-20T04:50:04;6.5;90.5
9666;DHT22;4871;52.004;5.924;2023-02-20T04:51:00;6.5;90.3
9666;DHT22;4871;52.004;5.924;2023-02-20T04:52:03;6.5;90.3
9666;DHT22;4871;52.004;5.924;2023-02-20T04:53:00;6.5;90.7
9666;DHT22;4871;52.004;5.924;2023-02-20T04:54:02;6.5;90.1
9666;DHT22;4871;52.004;5.924;2023-02-20T04:55:00;6.5;90.1
9666;DHT22;4871;52.004;5.924;2023-02-20T04:56:02;6.5;90.0
9666;DHT22;4871;52.004;5.924;2023-02-20T04:57:00;6.5;90.2
9666;DHT22;4871;52.004;5.924;2023-02-20T04:58:02;6.5;90.5
9666;DHT22;4871;52.004;5.924;2023-02-20T04:59:00;6.5;90.8
9666;DHT22;4871;52.004;5.924;2023-02-20T05:00:03;6.5;90.4
9666;DHT22;4871;52.004;5.924;2023-02-20T05:01:00;6.5;90.5
9666;DHT22;4871;52.004;5.924;2023-02-20T05:02:02;6.5;90.7
9666;DHT22;4871;52.004;5.924;2023-02-20T05:03:00;6.5;90.5
9666;DHT22;4871;52.004;5.924;2023-02-20T05:04:01;6.5;90.2
9666;DHT22;4871;52.004;5.924;2023-02-20T05:05:00;6.6;90.0
9666;DHT22;4871;52.004;5.924;2023-02-20T05:06:03;6.6;90.6
9666;DHT22;4871;52.004;5.924;2023-02-20T05:07:00;6.6;90.4
9666;DHT22;4871;52.004;5.924;2023-02-20T05:08:05;6.6;90.3
9666;DHT22;4871;52.004;5.924;2023-02-20T05:09:00;6.6;90.3
9666;DHT22;4871;52.004;5.924;2023-02-20T05:10:01;6.6;90.3
9666;DHT22;4871;52.004;5.924;2023-02-20T05:11:00;6.6;90.2
9666;DHT22;4871;52.004;5.924;2023-02-20T05:12:03;6.6;90.6
9666;DHT22;4871;52.004;5.924;2023-02-20T05:13:00;6.6;90.5
9666;DHT22;4871;52.004;5.924;2023-02-20T05:14:05;6.6;90.3
9666;DHT22;4871;52.004;5.924;2023-02-20T05:15:00;6.6;90.4
9666;DHT22;4871;52.004;5.924;2023-02-20T05:16:05;6.6;90.3
9666;DHT22;4871;52.004;5.924;2023-02-20T05:17:00;6.6;90.5
9666;DHT22;4871;52.004;5.924;2023-02-20T05:18:02;6.6;90.6
9666;DHT22;4871;52.004;5.924;2023-02-20T05:19:00;6.6;90.2
9666;DHT22;4871;52.004;5.924;2023-02-20T05:20:02;6.6;90.4
9666;DHT22;4871;52.004;5.924;2023-02-20T05:21:12;6.6;90.7
9666;DHT22;4871;52.004;5.924;2023-02-20T05:22:12;6.6;90.4
9666;DHT22;4871;52.004;5.924;2023-02-20T05:23:00;6.6;90.8
9666;DHT22;4871;52.004;5.924;2023-02-20T05:24:01;6.6;90.7
9666;DHT22;4871;52.004;5.924;2023-02-20T05:25:00;6.6;90.5
9666;DHT22;4871;52.004;5.924;2023-02-20T05:26:02;6.6;90.4
9666;DHT22;4871;52.004;5.924;2023-02-20T05:27:00;6.6;90.2
9666;DHT22;4871;52.004;5.924;2023-02-20T05:28:02;6.6;90.2
9666;DHT22;4871;52.004;5.924;2023-02-20T05:29:00;6.7;90.1
9666;DHT22;4871;52.004;5.924;2023-02-20T05:30:05;6.7;90.4
9666;DHT22;4871;52.004;5.924;2023-02-20T05:31:00;6.7;90.1
9666;DHT22;4871;52.004;5.924;2023-02-20T05:32:03;6.7;90.4
9666;DHT22;4871;52.004;5.924;2023-02-20T05:33:00;6.7;90.3
9666;DHT22;4871;52.004;5.924;2023-02-20T05:34:03;6.7;90.4
9666;DHT22;4871;52.004;5.924;2023-02-20T05:35:00;6.7;90.3
9666;DHT22;4871;52.004;5.924;2023-02-20T05:36:03;6.7;90.3
9666;DHT22;4871;52.004;5.924;2023-02-20T05:37:00;6.7;90.2
9666;DHT22;4871;52.004;5.924;2023-02-20T05:38:01;6.7;90.5
9666;DHT22;4871;52.004;5.924;2023-02-20T05:39:00;6.7;90.6
9666;DHT22;4871;52.004;5.924;2023-02-20T05:40:05;6.7;90.1
9666;DHT22;4871;52.004;5.924;2023-02-20T05:41:00;6.7;90.0
9666;DHT22;4871;52.004;5.924;2023-02-20T05:42:04;6.7;90.5
9666;DHT22;4871;52.004;5.924;2023-02-20T05:43:00;6.7;90.2
9666;DHT22;4871;52.004;5.924;2023-02-20T05:44:02;6.7;90.3
9666;DHT22;4871;52.004;5.924;2023-02-20T05:45:01;6.8;90.4
9666;DHT22;4871;52.004;5.924;2023-02-20T05:46:03;6.8;90.3
9666;DHT22;4871;52.004;5.924;2023-02-20T05:47:00;6.8;90.7
9666;DHT22;4871;52.004;5.924;2023-02-20T05:48:03;6.8;90.2
9666;DHT22;4871;52.004;5.924;2023-02-20T05:49:00;6.7;90.5
9666;DHT22;4871;52.004;5.924;2023-02-20T05:50:03;6.7;90.7
9666;DHT22;4871;52.004;5.924;2023-02-20T05:51:00;6.8;90.6
9666;DHT22;4871;52.004;5.924;2023-02-20T05:52:03;6.8;90.5
9666;DHT22;4871;52.004;5.924;2023-02-20T05:53:00;6.8;90.3
9666;DHT22;4871;52.004;5.924;2023-02-20T05:54:02;6.8;90.4
9666;DHT22;4871;52.004;5.924;2023-02-20T05:55:00;6.8;90.4
9666;DHT22;4871;52.004;5.924;2023-02-20T05:56:03;6.8;90.5
9666;DHT22;4871;52.004;5.924;2023-02-20T05:57:00;6.8;90.2
9666;DHT22;4871;52.004;5.924;2023-02-20T05:58:02;6.8;90.1
9666;DHT22;4871;52.004;5.924;2023-02-20T05:59:00;6.9;90.3
9666;DHT22;4871;52.004;5.924;2023-02-20T06:00:02;6.8;90.4
9666;DHT22;4871;52.004;5.924;2023-02-20T06:01:00;6.8;90.3
9666;DHT22;4871;52.004;5.924;2023-02-20T06:02:03;6.8;90.5
9666;DHT22;4871;52.004;5.924;2023-02-20T06:03:00;6.8;90.2
9666;DHT22;4871;52.004;5.924;2023-02-20T06:04:04;6.8;90.7
9666;DHT22;4871;52.004;5.924;2023-02-20T06:05:00;6.8;90.5
9666;DHT22;4871;52.004;5.924;2023-02-20T06:06:03;6.9;90.5
9666;DHT22;4871;52.004;5.924;2023-02-20T06:07:00;6.9;90.3
9666;DHT22;4871;52.004;5.924;2023-02-20T06:08:02;6.9;90.7
9666;DHT22;4871;52.004;5.924;2023-02-20T06:09:00;6.9;90.6
9666;DHT22;4871;52.004;5.924;2023-02-20T06:10:04;6.9;90.6
9666;DHT22;4871;52.004;5.924;2023-02-20T06:11:00;6.9;90.2
9666;DHT22;4871;52.004;5.924;2023-02-20T06:12:03;6.9;90.7
9666;DHT22;4871;52.004;5.924;2023-02-20T06:13:00;6.9;90.4
9666;DHT22;4871;52.004;5.924;2023-02-20T06:14:03;6.9;90.2
9666;DHT22;4871;52.004;5.924;2023-02-20T06:15:00;6.9;90.5
9666;DHT22;4871;52.004;5.924;2023-02-20T06:16:03;6.9;90.5
9666;DHT22;4871;52.004;5.924;2023-02-20T06:17:00;6.9;90.3
9666;DHT22;4871;52.004;5.924;2023-02-20T06:18:02;6.9;90.2
9666;DHT22;4871;52.004;5.924;2023-02-20T06:19:00;6.9;90.5
9666;DHT22;4871;52.004;5.924;2023-02-20T06:20:03;6.9;90.7
9666;DHT22;4871;52.004;5.924;2023-02-20T06:21:00;6.9;90.4
9666;DHT22;4871;52.004;5.924;2023-02-20T06:22:03;6.9;90.4
9666;DHT22;4871;52.004;5.924;2023-02-20T06:23:00;6.9;90.5
9666;DHT22;4871;52.004;5.924;2023-02-20T06:24:02;6.9;90.3
9666;DHT22;4871;52.004;5.924;2023-02-20T06:25:00;6.9;90.6
9666;DHT22;4871;52.004;5.924;2023-02-20T06:26:02;6.9;90.6
9666;DHT22;4871;52.004;5.924;2023-02-20T06:27:00;6.9;90.8
9666;DHT22;4871;52.004;5.924;2023-02-20T06:28:03;6.9;90.5
9666;DHT22;4871;52.004;5.924;2023-02-20T06:29:00;7.0;90.3
9666;DHT22;4871;52.004;5.924;2023-02-20T06:30:02;7.0;90.3
9666;DHT22;4871;52.004;5.924;2023-02-20T06:31:00;7.0;90.6
9666;DHT22;4871;52.004;5.924;2023-02-20T06:32:02;7.0;90.2
9666;DHT22;4871;52.004;5.924;2023-02-20T06:33:00;7.0;90.4
9666;DHT22;4871;52.004;5.924;2023-02-20T06:34:02;7.0;90.5
9666;DHT22;4871;52.004;5.924;2023-02-20T06:35:00;7.0;90.3
9666;DHT22;4871;52.004;5.924;2023-02-20T06:36:03;7.0;90.8
9666;DHT22;4871;52.004;5.924;2023-02-20T06:37:02;7.0;90.7
9666;DHT22;4871;52.004;5.924;2023-02-20T06:38:02;7.0;90.6
9666;DHT22;4871;52.004;5.924;2023-02-20T06:39:00;7.0;90.4
9666;DHT22;4871;52.004;5.924;2023-02-20T06:40:04;7.0;90.3
9666;DHT22;4871;52.004;5.924;2023-02-20T06:41:00;7.0;90.3
9666;DHT22;4871;52.004;5.924;2023-02-20T06:42:03;7.1;90.5
9666;DHT22;4871;52.004;5.924;2023-02-20T06:43:00;7.1;90.6
9666;DHT22;4871;52.004;5.924;2023-02-20T06:44:03;7.1;90.3
9666;DHT22;4871;52.004;5.924;2023-02-20T06:45:00;7.1;90.6
9666;DHT22;4871;52.004;5.924;2023-02-20T06:46:03;7.1;90.3
9666;DHT22;4871;52.004;5.924;2023-02-20T06:47:00;7.1;90.4
9666;DHT22;4871;52.004;5.924;2023-02-20T06:48:04;7.1;90.4
9666;DHT22;4871;52.004;5.924;2023-02-20T06:49:00;7.1;90.7
9666;DHT22;4871;52.004;5.924;2023-02-20T06:50:04;7.1;90.2
9666;DHT22;4871;52.004;5.924;2023-02-20T06:51:00;7.1;90.2
9666;DHT22;4871;52.004;5.924;2023-02-20T06:52:04;7.1;90.3
9666;DHT22;4871;52.004;5.924;2023-02-20T06:53:00;7.1;90.5